Terminal Aerodrome Forecast
Issued by NWS Twin Cities, MN

Home | Current Version | Previous Version | Graphics & Text | Print | Product List | Glossary On
Versions: 1 2 3 4 5 6 7 8 9 10 11 12 13 14
338
FTUS43 KMPX 221459 AAA
TAFSTC
TAF AMD
KSTC 221459Z 2215/2312 18013G19KT P6SM SKC
     FM221900 19016G24KT P6SM FEW100
     FM230000 18012KT P6SM SKC=

USA.gov is the U.S. government's official web portal to all federal, state and local government web resources and services.